createdAt,value
2022-07-25T00:02:58.319Z,97859.63
2022-07-25T00:06:00.717Z,97854.69
2022-07-25T00:09:02.755Z,97849.47
2022-07-25T00:12:05.120Z,97846.56
2022-07-25T00:15:08.652Z,97837.59
2022-07-25T00:18:10.809Z,97848.25
2022-07-25T00:21:13.197Z,97835.84
2022-07-25T00:24:15.289Z,97838.66
2022-07-25T00:27:17.380Z,97841.81
2022-07-25T00:30:19.499Z,97836.50
2022-07-25T00:33:21.577Z,97834.81
2022-07-25T00:36:23.663Z,97833.72
2022-07-25T00:39:25.736Z,97828.72
2022-07-25T00:42:27.910Z,97825.69
2022-07-25T00:45:30.071Z,97817.53
2022-07-25T00:48:32.140Z,97824.41
2022-07-25T00:51:34.263Z,97821.34
2022-07-25T00:54:36.499Z,97824.34
2022-07-25T00:57:38.676Z,97827.44
2022-07-25T01:00:41.048Z,97825.75
2022-07-25T01:03:43.639Z,97817.78
2022-07-25T01:06:45.839Z,97818.25
2022-07-25T01:09:48.046Z,97815.06
2022-07-25T01:12:51.988Z,97813.66
2022-07-25T01:15:54.258Z,97814.97
2022-07-25T01:18:56.405Z,97807.97
2022-07-25T01:21:58.464Z,97807.59
2022-07-25T01:25:00.610Z,97802.75
2022-07-25T01:28:03.336Z,97799.03
2022-07-25T01:31:06.201Z,97797.75
2022-07-25T01:34:08.545Z,97800.56
2022-07-25T01:37:10.875Z,97793.84
2022-07-25T01:40:13.981Z,97795.53
2022-07-25T01:43:16.321Z,97793.69
2022-07-25T01:46:18.797Z,97787.81
2022-07-25T01:49:21.115Z,97783.47
2022-07-25T01:52:23.250Z,97778.28
2022-07-25T01:55:25.441Z,97774.44
2022-07-25T01:58:30.066Z,97770.38
2022-07-25T02:01:32.272Z,97766.88
2022-07-25T02:04:35.945Z,97775.56
2022-07-25T02:07:38.353Z,97771.50
2022-07-25T02:10:40.460Z,97777.31
2022-07-25T02:13:42.664Z,97778.16
2022-07-25T02:16:44.921Z,97778.72
2022-07-25T02:19:47.152Z,97773.47
2022-07-25T02:22:49.303Z,97777.44
2022-07-25T02:25:51.351Z,97775.19
2022-07-25T02:28:53.443Z,97774.69
2022-07-25T02:31:55.644Z,97768.81
2022-07-25T02:34:58.651Z,97769.09
2022-07-25T02:38:00.857Z,97771.75
2022-07-25T02:41:03.134Z,97774.28
2022-07-25T02:44:06.700Z,97769.94
2022-07-25T02:47:09.177Z,97771.47
2022-07-25T02:50:14.599Z,97776.09
2022-07-25T02:53:28.914Z,97773.91
2022-07-25T02:56:39.232Z,97775.41
2022-07-25T02:59:41.308Z,97776.94
2022-07-25T03:02:43.643Z,97768.59
2022-07-25T03:05:45.754Z,97776.84
2022-07-25T03:08:47.948Z,97771.81
2022-07-25T03:11:52.063Z,97770.41
2022-07-25T03:14:54.192Z,97763.94
2022-07-25T03:17:56.315Z,97767.59
2022-07-25T03:20:58.400Z,97766.22
2022-07-25T03:24:00.460Z,97770.00
2022-07-25T03:27:02.654Z,97764.16
2022-07-25T03:30:05.372Z,97760.34
2022-07-25T03:33:07.559Z,97760.53
2022-07-25T03:36:10.613Z,97760.81
2022-07-25T03:39:13.127Z,97756.19
2022-07-25T03:42:15.446Z,97755.72
2022-07-25T03:45:18.156Z,97752.94
2022-07-25T03:48:20.185Z,97762.28
2022-07-25T03:51:22.280Z,97759.63
2022-07-25T03:54:24.365Z,97760.47
2022-07-25T03:57:26.609Z,97772.31
2022-07-25T04:00:28.656Z,97761.25
2022-07-25T04:03:30.673Z,97760.09
2022-07-25T04:06:33.665Z,97758.81
2022-07-25T04:09:35.746Z,97758.53
2022-07-25T04:12:37.934Z,97758.53
2022-07-25T04:15:39.956Z,97759.75
2022-07-25T04:18:42.410Z,97748.19
2022-07-25T04:21:45.925Z,97742.13
2022-07-25T04:24:47.977Z,97744.63
2022-07-25T04:27:50.109Z,97741.53
2022-07-25T04:30:52.512Z,97739.38
2022-07-25T04:33:54.679Z,97732.78
2022-07-25T04:36:56.817Z,97742.16
2022-07-25T04:39:58.872Z,97737.84
2022-07-25T04:43:01.177Z,97736.44
2022-07-25T04:46:03.502Z,97732.19
2022-07-25T04:49:05.790Z,97728.75
2022-07-25T04:52:08.009Z,97734.13
2022-07-25T04:55:10.357Z,97724.31
2022-07-25T04:58:12.587Z,97734.88
2022-07-25T05:01:14.664Z,97729.59
2022-07-25T05:04:16.936Z,97719.78
2022-07-25T05:07:19.274Z,97721.16
2022-07-25T05:10:21.439Z,97724.00
2022-07-25T05:13:23.493Z,97724.88
2022-07-25T05:16:26.208Z,97717.78
2022-07-25T05:19:28.457Z,97719.28
2022-07-25T05:22:30.554Z,97709.34
2022-07-25T06:26:00.656Z,97673.25
2022-07-25T06:29:02.905Z,97676.69
2022-07-25T06:32:15.664Z,97669.06
2022-07-25T06:35:19.044Z,97667.78
2022-07-25T06:38:21.194Z,97666.41
2022-07-25T06:41:23.321Z,97663.78
2022-07-25T06:44:26.245Z,97668.16
2022-07-25T06:47:31.727Z,97661.13
2022-07-25T06:50:37.705Z,97659.94
2022-07-25T06:53:39.744Z,97657.81
2022-07-25T06:56:41.868Z,97660.56
2022-07-25T06:59:45.274Z,97648.91
2022-07-25T07:02:49.801Z,97649.13
2022-07-25T07:05:54.537Z,97655.47
2022-07-25T07:08:56.735Z,97647.47
2022-07-25T07:11:59.157Z,97653.13
2022-07-25T07:15:01.305Z,97648.00
2022-07-25T07:18:04.144Z,97644.47
2022-07-25T07:21:06.517Z,97645.94
2022-07-25T07:24:24.278Z,97648.69
2022-07-25T07:27:26.829Z,97643.88
2022-07-25T07:30:58.457Z,97642.16
2022-07-25T07:33:51.086Z,97635.66
2022-07-25T07:36:53.212Z,97636.25
2022-07-25T07:39:55.288Z,97630.16
2022-07-25T07:42:58.729Z,97627.91
2022-07-25T07:46:01.776Z,97624.94
2022-07-25T07:49:04.618Z,97623.44
2022-07-25T07:52:07.161Z,97617.41
2022-07-25T07:55:29.201Z,97618.06
2022-07-25T07:58:31.413Z,97616.28
2022-07-25T08:01:33.991Z,97607.75
2022-07-25T08:04:36.252Z,97603.56
2022-07-25T08:07:38.452Z,97602.41
2022-07-25T08:10:43.814Z,97593.88
2022-07-25T08:13:46.002Z,97584.41
2022-07-25T08:16:48.032Z,97587.13
2022-07-25T08:19:50.120Z,97588.78
2022-07-25T08:22:56.392Z,97579.75
2022-07-25T08:25:58.947Z,97579.41
2022-07-25T08:29:18.163Z,97577.03
2022-07-25T08:32:21.665Z,97579.50
2022-07-25T08:35:26.270Z,97573.34
2022-07-25T08:38:29.581Z,97573.91
2022-07-25T08:41:34.158Z,97562.56
2022-07-25T08:44:40.956Z,97563.81
2022-07-25T08:47:44.074Z,97558.66
2022-07-25T08:50:47.551Z,97563.63
2022-07-25T08:53:50.864Z,97548.06
2022-07-25T08:56:52.898Z,97553.22
2022-07-25T08:59:59.000Z,97544.28
2022-07-25T09:03:03.170Z,97546.03
2022-07-25T09:06:15.801Z,97545.38
2022-07-25T09:09:18.538Z,97528.97
2022-07-25T09:12:27.140Z,97536.50
2022-07-25T09:15:32.073Z,97526.88
2022-07-25T09:18:36.544Z,97536.53
2022-07-25T09:21:40.080Z,97528.16
2022-07-25T09:24:46.319Z,97525.59
2022-07-25T09:27:48.447Z,97523.97
2022-07-25T09:30:55.790Z,97525.06
2022-07-25T09:33:59.680Z,97504.03
2022-07-25T09:37:04.133Z,97500.66
2022-07-25T09:40:15.245Z,97504.09
2022-07-25T09:43:17.237Z,97497.38
2022-07-25T09:46:32.732Z,97500.03
2022-07-25T09:49:45.497Z,97488.97
2022-07-25T09:52:47.863Z,97491.56
2022-07-25T09:55:50.121Z,97485.91
2022-07-25T09:58:53.078Z,97487.97
2022-07-25T10:02:10.498Z,97483.94
2022-07-25T10:05:32.920Z,97479.59
2022-07-25T10:08:40.363Z,97479.72
2022-07-25T10:12:05.465Z,97478.38
2022-07-25T10:15:12.375Z,97465.84
2022-07-25T10:18:15.821Z,97473.09
2022-07-25T10:21:27.989Z,97464.09
2022-07-25T10:24:35.392Z,97454.03
2022-07-25T10:27:50.294Z,97459.28
2022-07-25T10:30:58.826Z,97455.22
2022-07-25T10:34:05.782Z,97443.13
2022-07-25T10:37:15.031Z,97440.91
2022-07-25T10:40:32.403Z,97434.00
2022-07-25T10:43:39.018Z,97427.94
2022-07-25T10:46:44.868Z,97427.63
2022-07-25T10:53:45.132Z,97416.19
2022-07-25T10:56:56.817Z,97411.19
2022-07-25T11:00:09.411Z,97416.31
2022-07-25T11:03:17.825Z,97401.06
2022-07-25T11:06:38.494Z,97395.75
2022-07-25T11:09:42.438Z,97393.81
2022-07-25T11:12:48.521Z,97389.59
2022-07-25T11:15:50.883Z,97381.00
2022-07-25T11:18:54.627Z,97382.25
2022-07-25T11:21:59.674Z,97387.09
2022-07-25T11:25:03.298Z,97368.03
2022-07-25T11:28:05.430Z,97370.09
2022-07-25T11:31:07.642Z,97366.72
2022-07-25T11:34:09.961Z,97350.53
2022-07-25T11:37:13.160Z,97355.78
2022-07-25T11:40:17.343Z,97354.09
2022-07-25T11:43:24.046Z,97345.97
2022-07-25T11:46:26.289Z,97343.69
2022-07-25T11:49:28.772Z,97338.41
2022-07-25T11:52:39.943Z,97337.81
2022-07-25T11:55:45.494Z,97332.75
2022-07-25T11:59:06.222Z,97335.22
2022-07-25T12:02:08.570Z,97323.22
2022-07-25T12:05:12.819Z,97319.38
2022-07-25T12:08:17.345Z,97305.94
2022-07-25T12:11:22.641Z,97302.03
2022-07-25T12:14:24.701Z,97309.16
2022-07-25T12:17:26.748Z,97301.25
2022-07-25T12:20:48.221Z,97297.13
2022-07-25T12:23:50.237Z,97299.09
2022-07-25T12:26:52.511Z,97280.75
2022-07-25T12:29:54.809Z,97292.91
2022-07-25T12:32:59.047Z,97280.81
2022-07-25T12:36:06.581Z,97268.25
2022-07-25T12:39:10.760Z,97261.44
2022-07-25T12:42:12.928Z,97266.91
2022-07-25T12:45:17.330Z,97267.84
2022-07-25T12:48:19.460Z,97260.63
2022-07-25T12:51:22.302Z,97259.41
2022-07-25T12:54:27.578Z,97262.78
2022-07-25T12:57:29.693Z,97261.00
2022-07-25T13:00:31.737Z,97247.97
2022-07-25T13:03:33.891Z,97242.78
2022-07-25T13:06:38.742Z,97240.16
2022-07-25T13:09:41.138Z,97241.78
2022-07-25T13:12:43.314Z,97226.34
2022-07-25T13:15:45.589Z,97227.41
2022-07-25T13:18:47.768Z,97219.03
2022-07-25T13:21:49.815Z,97214.41
2022-07-25T13:24:52.892Z,97211.44
2022-07-25T13:27:55.070Z,97208.97
2022-07-25T13:30:57.300Z,97203.47
2022-07-25T13:33:59.415Z,97197.41
2022-07-25T13:37:01.633Z,97199.34
2022-07-25T13:40:04.660Z,97194.94
2022-07-25T13:43:07.030Z,97192.72
2022-07-25T13:46:09.521Z,97192.63
2022-07-25T13:49:12.250Z,97191.03
2022-07-25T13:52:14.552Z,97190.72
2022-07-25T13:55:16.695Z,97189.94
2022-07-25T13:58:18.838Z,97184.16
2022-07-25T14:01:21.819Z,97177.31
2022-07-25T14:04:24.239Z,97171.34
2022-07-25T14:07:26.357Z,97169.81
2022-07-25T14:10:28.517Z,97168.75
2022-07-25T14:13:30.639Z,97159.13
2022-07-25T14:16:34.017Z,97164.22
2022-07-25T14:19:36.302Z,97152.03
2022-07-25T14:22:39.879Z,97154.16
2022-07-25T14:25:47.829Z,97155.13
2022-07-25T14:28:50.115Z,97148.88
2022-07-25T14:31:52.267Z,97142.66
2022-07-25T14:34:54.396Z,97135.94
2022-07-25T14:37:56.513Z,97147.31
2022-07-25T14:40:58.535Z,97132.47
2022-07-25T14:44:00.917Z,97120.34
2022-07-25T14:47:03.024Z,97113.69
2022-07-25T14:50:06.164Z,97114.28
2022-07-25T14:53:08.290Z,97107.53
2022-07-25T14:56:10.363Z,97103.09
2022-07-25T14:59:12.628Z,97098.09
2022-07-25T15:02:14.821Z,97092.22
2022-07-25T15:05:17.014Z,97097.75
2022-07-25T15:08:19.162Z,97095.41
2022-07-25T15:11:21.840Z,97096.25
2022-07-25T15:14:23.895Z,97093.31
2022-07-25T15:17:26.044Z,97098.03
2022-07-25T15:20:28.390Z,97086.78
2022-07-25T15:23:31.194Z,97092.75
2022-07-25T15:26:33.511Z,97089.78
2022-07-25T15:29:35.858Z,97087.50
2022-07-25T15:32:39.271Z,97080.53
2022-07-25T15:35:42.035Z,97081.53
2022-07-25T15:38:45.004Z,97081.63
2022-07-25T15:41:47.048Z,97075.34
2022-07-25T15:44:49.406Z,97067.44
2022-07-25T15:47:52.145Z,97076.59
2022-07-25T15:50:56.354Z,97065.19
2022-07-25T15:53:58.407Z,97070.47
2022-07-25T15:57:00.560Z,97066.16
2022-07-25T16:00:03.963Z,97064.31
2022-07-25T16:03:10.581Z,97058.72
2022-07-25T16:06:18.416Z,97064.06
2022-07-25T16:09:21.245Z,97047.66
2022-07-25T16:12:28.310Z,97057.97
2022-07-25T16:15:31.199Z,97050.13
2022-07-25T16:18:33.346Z,97045.47
2022-07-25T16:21:35.482Z,97044.88
2022-07-25T16:24:40.645Z,97052.47
2022-07-25T16:27:42.755Z,97045.25
2022-07-25T16:30:44.829Z,97039.03
2022-07-25T16:33:46.954Z,97029.56
2022-07-25T16:36:49.018Z,97037.44
2022-07-25T16:39:51.046Z,97039.84
2022-07-25T16:42:55.896Z,97022.78
2022-07-25T16:45:58.114Z,97025.13
2022-07-25T16:49:00.252Z,97029.63
2022-07-25T16:52:02.340Z,97033.19
2022-07-25T16:55:05.546Z,97036.00
2022-07-25T16:58:07.625Z,97025.66
2022-07-25T17:01:09.761Z,97032.91
2022-07-25T17:04:11.829Z,97029.16
2022-07-25T17:07:14.131Z,97020.00
2022-07-25T17:10:16.193Z,97024.38
2022-07-25T17:13:18.261Z,97019.38
2022-07-25T17:16:20.428Z,97015.38
2022-07-25T17:19:22.569Z,97015.09
2022-07-25T17:22:24.660Z,96999.84
2022-07-25T17:25:27.394Z,96995.13
2022-07-25T17:28:29.521Z,97008.69
2022-07-25T17:31:31.644Z,97008.66
2022-07-25T17:34:34.069Z,97004.97
2022-07-25T17:37:36.219Z,97007.50
2022-07-25T17:40:38.433Z,96989.78
2022-07-25T17:43:40.726Z,96997.09
2022-07-25T17:46:42.993Z,96992.16
2022-07-25T17:49:48.707Z,96988.41
2022-07-25T17:52:51.154Z,96991.94
2022-07-25T17:55:53.497Z,96986.56
2022-07-25T17:58:55.752Z,96993.94
2022-07-25T18:01:59.286Z,96992.69
2022-07-25T18:05:01.417Z,96989.47
2022-07-25T18:08:04.503Z,96984.50
2022-07-25T18:11:06.628Z,96988.03
2022-07-25T18:14:09.555Z,96992.44
2022-07-25T18:17:12.271Z,96987.28
2022-07-25T18:20:16.561Z,96985.34
2022-07-25T18:23:18.692Z,96984.69
2022-07-25T18:26:22.082Z,96987.59
2022-07-25T18:29:24.519Z,96986.41
2022-07-25T18:32:26.705Z,96985.63
2022-07-25T18:35:31.704Z,96986.56
2022-07-25T18:38:33.830Z,96989.34
2022-07-25T18:41:37.467Z,96991.84
2022-07-25T18:44:39.551Z,96992.22
2022-07-25T18:47:42.298Z,96992.13
2022-07-25T18:50:44.417Z,96995.97
2022-07-25T18:53:48.478Z,96994.47
2022-07-25T18:56:50.943Z,96998.13
2022-07-25T18:59:53.021Z,96996.09
2022-07-25T19:02:55.191Z,96994.69
2022-07-25T19:06:02.831Z,96996.91
2022-07-25T19:09:05.725Z,96999.47
2022-07-25T19:12:08.234Z,97010.00
2022-07-25T19:15:10.637Z,97009.72
2022-07-25T19:18:12.755Z,97011.91
2022-07-25T19:21:15.623Z,97017.03
2022-07-25T19:24:18.263Z,97016.75
2022-07-25T19:27:20.711Z,97023.75
2022-07-25T19:30:22.990Z,97022.72
2022-07-25T19:33:25.765Z,97031.22
2022-07-25T19:36:38.210Z,97032.47
2022-07-25T19:39:40.314Z,97027.63
2022-07-25T19:42:42.630Z,97026.69
2022-07-25T19:45:44.867Z,97037.56
2022-07-25T19:48:47.245Z,97024.81
2022-07-25T19:51:49.419Z,97031.16
2022-07-25T19:54:51.584Z,97024.66
2022-07-25T19:57:53.637Z,97021.69
2022-07-25T20:00:55.714Z,97019.06
2022-07-25T20:03:57.729Z,97019.94
2022-07-25T20:07:02.520Z,97009.97
2022-07-25T20:10:05.588Z,97013.81
2022-07-25T20:13:07.824Z,97013.59
2022-07-25T20:16:09.972Z,97016.19
2022-07-25T20:19:12.480Z,97007.38
2022-07-25T20:22:14.533Z,97004.81
2022-07-25T20:25:16.644Z,97002.94
2022-07-25T20:28:18.986Z,97003.75
2022-07-25T20:31:24.484Z,96991.84
2022-07-25T20:34:26.586Z,96999.59
2022-07-25T20:37:28.613Z,96991.59
2022-07-25T20:40:30.824Z,96999.16
2022-07-25T20:43:34.913Z,97001.25
2022-07-25T20:46:37.162Z,97010.00
2022-07-25T20:49:39.853Z,97006.16
2022-07-25T20:52:41.968Z,97005.97
2022-07-25T20:55:44.047Z,97002.72
2022-07-25T20:58:46.113Z,97007.31
2022-07-25T21:01:48.425Z,97004.50
2022-07-25T21:04:50.654Z,96995.84
2022-07-25T21:07:53.203Z,96999.16
2022-07-25T21:10:55.435Z,96993.41
2022-07-25T21:13:57.633Z,96995.97
2022-07-25T21:17:00.720Z,96994.34
2022-07-25T21:20:03.433Z,96998.28
2022-07-25T21:23:05.577Z,97004.16
2022-07-25T21:26:07.695Z,97004.19
2022-07-25T21:29:10.248Z,96994.31
2022-07-25T21:32:14.012Z,96994.34
2022-07-25T21:35:16.164Z,96988.00
2022-07-25T21:38:27.633Z,96987.81
2022-07-25T21:41:30.548Z,96991.34
2022-07-25T21:44:32.711Z,97002.75
2022-07-25T21:47:35.279Z,96988.47
2022-07-25T21:50:44.002Z,96989.47
2022-07-25T21:53:47.947Z,96993.44
2022-07-25T21:56:50.097Z,97003.34
2022-07-25T21:59:52.155Z,97007.25
2022-07-25T22:02:54.157Z,97004.56
2022-07-25T22:05:56.421Z,97015.97
2022-07-25T22:08:58.572Z,97016.78
2022-07-25T22:12:00.642Z,97023.38
2022-07-25T22:15:03.022Z,97022.56
2022-07-25T22:18:05.874Z,97024.88
2022-07-25T22:21:08.050Z,97019.53
2022-07-25T22:24:10.254Z,97023.03
2022-07-25T22:27:12.476Z,97024.50
2022-07-25T22:30:19.187Z,97018.72
2022-07-25T22:33:21.639Z,97015.81
2022-07-25T22:36:23.675Z,97018.94
2022-07-25T22:39:25.725Z,97026.56
2022-07-25T22:42:28.831Z,97018.31
2022-07-25T22:45:31.220Z,97009.44
2022-07-25T22:48:33.356Z,97011.72
2022-07-25T22:51:35.475Z,97010.25
2022-07-25T22:54:37.560Z,97016.84
2022-07-25T22:57:39.696Z,97012.56
2022-07-25T23:00:41.993Z,97009.25
2022-07-25T23:03:44.168Z,97007.34
2022-07-25T23:06:46.551Z,97015.41
2022-07-25T23:09:48.757Z,97008.78
2022-07-25T23:12:50.839Z,97007.91
2022-07-25T23:15:53.158Z,97011.03
2022-07-25T23:18:55.959Z,97010.59
2022-07-25T23:21:58.005Z,96999.88
2022-07-25T23:25:00.074Z,96992.03
2022-07-25T23:28:02.417Z,96991.81
2022-07-25T23:31:04.954Z,96995.53
2022-07-25T23:34:07.428Z,96997.19
2022-07-25T23:37:09.600Z,96990.41
2022-07-25T23:40:12.515Z,96987.31
2022-07-25T23:43:15.148Z,96994.94
2022-07-25T23:46:27.698Z,96991.84
2022-07-25T23:49:31.553Z,96983.41
2022-07-25T23:52:33.787Z,96981.31
2022-07-25T23:55:35.818Z,96984.84
2022-07-25T23:58:37.871Z,96986.50
